Bom Conselho, Brazil
Current Conditions -  °F | °C
As of 9:00 AM on Thursday 23 Oct 2014 (Local Time) from SBMO Reporting Station
Broken Clouds Broken Clouds  
Wind Chill: 77°   Ceiling: 2000
Heat Index: 79°   Visibility: 6mi
Dew Point: 70°   Wind: 13mph
Humidity: 78%   Direction: 110°ESE
Pressure: 30.03"   Gusts: NA
Location:  9.17°S, 36.68°W
Report Text: SBMO 231200Z 11011KT 9999 BKN020 25/21 Q1017
Loading
Personal Weather Stations






























Interactive Weather Map
Tropical Storm Tracking
New forecast layout! Learn more

10-Day Weather Forecast

Advertisements
Track Severe Weather on mobile